createdAt,value
2019-04-22T00:01:20.576Z,34.87
2019-04-22T00:03:53.188Z,33.23
2019-04-22T00:06:42.460Z,35.87
2019-04-22T00:09:11.068Z,40.40
2019-04-22T00:11:54.931Z,37.63
2019-04-22T00:14:11.910Z,39.00
2019-04-22T00:16:58.837Z,46.47
2019-04-22T00:19:38.877Z,38.67
2019-04-22T00:22:11.887Z,38.67
2019-04-22T00:24:40.228Z,41.80
2019-04-22T00:27:28.116Z,42.63
2019-04-22T00:29:59.349Z,47.03
2019-04-22T00:32:24.596Z,53.10
2019-04-22T00:34:59.267Z,43.50
2019-04-22T00:37:35.359Z,47.37
2019-04-22T00:39:57.820Z,47.90
2019-04-22T00:42:51.392Z,52.83
2019-04-22T00:45:19.332Z,51.00
2019-04-22T00:48:07.283Z,48.70
2019-04-22T00:50:37.147Z,48.67
2019-04-22T00:58:43.912Z,58.20
2019-04-22T01:03:55.844Z,50.17
2019-04-22T01:06:20.366Z,49.80
2019-04-22T01:14:09.246Z,70.27
2019-04-22T01:16:42.950Z,55.83
2019-04-22T01:19:16.630Z,52.00
2019-04-22T01:21:45.158Z,54.47
2019-04-22T01:24:20.441Z,66.27
2019-04-22T01:26:43.580Z,61.80
2019-04-22T01:29:11.853Z,59.80
2019-04-22T01:31:41.615Z,63.80
2019-04-22T01:34:27.885Z,65.50
2019-04-22T01:37:07.788Z,69.10
2019-04-22T01:39:49.989Z,71.03
2019-04-22T01:42:21.901Z,72.13
2019-04-22T01:45:02.790Z,74.27
2019-04-22T01:47:36.794Z,80.07
2019-04-22T01:50:06.128Z,79.20
2019-04-22T01:52:41.614Z,70.77
2019-04-22T01:55:32.393Z,77.47
2019-04-22T01:57:53.550Z,77.23
2019-04-22T02:00:27.413Z,76.53
2019-04-22T02:03:07.239Z,73.80
2019-04-22T02:05:35.779Z,71.33
2019-04-22T02:08:19.843Z,70.50
2019-04-22T02:10:49.364Z,67.60
2019-04-22T02:13:21.883Z,64.47
2019-04-22T02:16:14.273Z,64.87
2019-04-22T02:18:49.120Z,66.33
2019-04-22T02:21:28.639Z,64.13
2019-04-22T02:24:18.055Z,67.40
2019-04-22T02:26:43.357Z,61.10
2019-04-22T02:29:16.811Z,61.73
2019-04-22T02:42:43.638Z,53.57
2019-04-22T02:45:22.341Z,50.50
2019-04-22T02:47:50.331Z,57.23
2019-04-22T02:50:36.607Z,61.60
2019-04-22T02:53:02.026Z,53.43
2019-04-22T02:55:41.320Z,50.10
2019-04-22T02:58:15.926Z,49.00
2019-04-22T03:00:54.172Z,48.03
2019-04-22T03:06:02.718Z,47.30
2019-04-22T03:08:23.573Z,45.50
2019-04-22T03:11:04.086Z,44.40
2019-04-22T03:16:51.073Z,40.87
2019-04-22T03:19:43.394Z,43.03
2019-04-22T03:26:58.463Z,39.90
2019-04-22T03:33:05.005Z,39.70
2019-04-22T03:45:34.029Z,39.73
2019-04-22T03:48:08.012Z,40.33
2019-04-22T03:50:37.254Z,39.17
2019-04-22T03:53:32.957Z,37.40
2019-04-22T03:56:15.569Z,39.77
2019-04-22T03:58:43.325Z,39.87
2019-04-22T04:01:18.755Z,39.00
2019-04-22T04:03:53.480Z,37.63
2019-04-22T04:06:06.852Z,36.27
2019-04-22T04:09:12.827Z,37.43
2019-04-22T04:20:06.383Z,34.40
2019-04-22T04:22:45.328Z,32.63
2019-04-22T04:25:06.001Z,33.53
2019-04-22T04:35:28.242Z,31.30
2019-04-22T04:48:14.476Z,30.87
2019-04-22T04:51:02.380Z,30.93
2019-04-22T04:55:38.806Z,30.67
2019-04-22T04:58:36.702Z,29.80
2019-04-22T05:01:14.854Z,28.77
2019-04-22T05:03:39.929Z,27.07
2019-04-22T05:06:05.894Z,26.87
2019-04-22T05:09:00.889Z,27.43
2019-04-22T05:11:24.989Z,26.93
2019-04-22T05:14:05.875Z,26.73
2019-04-22T05:21:40.648Z,26.17
2019-04-22T05:24:26.068Z,26.00
2019-04-22T05:26:56.726Z,25.37
2019-04-22T05:29:56.586Z,25.83
2019-04-22T05:32:08.894Z,25.27
2019-04-22T05:34:40.105Z,24.70
2019-04-22T05:37:20.696Z,25.10
2019-04-22T05:39:52.723Z,23.90
2019-04-22T05:42:18.047Z,24.17
2019-04-22T05:45:05.522Z,24.10
2019-04-22T05:47:50.515Z,22.10
2019-04-22T05:50:06.477Z,23.07
2019-04-22T05:52:31.631Z,22.73
2019-04-22T05:55:09.704Z,21.97
2019-04-22T05:57:45.740Z,21.17
2019-04-22T06:00:18.270Z,20.83
2019-04-22T06:05:10.118Z,20.53
2019-04-22T06:07:45.669Z,21.07
2019-04-22T06:10:26.102Z,19.90
2019-04-22T06:12:43.032Z,20.57
2019-04-22T06:15:18.435Z,19.80
2019-04-22T06:18:03.076Z,19.80
2019-04-22T06:20:21.942Z,20.03
2019-04-22T06:22:56.806Z,18.73
2019-04-22T06:25:38.648Z,19.73
2019-04-22T06:28:04.874Z,19.93
2019-04-22T06:30:46.606Z,18.80
2019-04-22T06:35:56.274Z,19.43
2019-04-22T06:40:52.119Z,19.43
2019-04-22T06:43:15.876Z,19.60
2019-04-22T06:45:45.024Z,19.87
2019-04-22T06:51:09.438Z,20.80
2019-04-22T06:53:23.942Z,20.47
2019-04-22T06:55:51.377Z,22.47
2019-04-22T06:58:28.940Z,21.77
2019-04-22T07:00:55.055Z,21.73
2019-04-22T07:03:42.819Z,22.27
2019-04-22T07:05:57.013Z,21.87
2019-04-22T07:11:01.620Z,21.70
2019-04-22T07:13:41.495Z,22.30
2019-04-22T07:16:13.315Z,22.07
2019-04-22T07:18:45.203Z,22.63
2019-04-22T07:21:12.561Z,22.73
2019-04-22T07:23:54.014Z,21.87
2019-04-22T07:26:18.933Z,22.97
2019-04-22T07:28:49.132Z,21.90
2019-04-22T07:31:20.821Z,21.00
2019-04-22T07:33:58.231Z,20.40
2019-04-22T07:39:04.209Z,21.17
2019-04-22T07:41:38.387Z,21.53
2019-04-22T07:46:56.285Z,20.87
2019-04-22T07:49:32.279Z,20.10
2019-04-22T07:52:04.808Z,20.93
2019-04-22T07:54:50.886Z,19.17
2019-04-22T07:57:19.925Z,19.73
2019-04-22T07:59:54.181Z,19.23
2019-04-22T08:02:14.578Z,18.57
2019-04-22T08:04:59.012Z,19.37
2019-04-22T08:07:27.073Z,19.00
2019-04-22T08:10:00.105Z,18.13
2019-04-22T08:12:26.777Z,18.20
2019-04-22T08:14:53.626Z,18.23
2019-04-22T08:17:52.066Z,17.93
2019-04-22T08:20:02.769Z,18.10
2019-04-22T08:22:26.112Z,17.87
2019-04-22T08:25:01.716Z,17.57
2019-04-22T08:27:35.325Z,17.37
2019-04-22T08:30:14.371Z,17.73
2019-04-22T15:35:27.269Z,12.67
2019-04-22T15:37:59.256Z,12.03
2019-04-22T15:40:29.397Z,10.17
2019-04-22T15:43:02.702Z,10.17
2019-04-22T15:45:34.720Z,11.73
2019-04-22T15:48:06.028Z,10.60
2019-04-22T15:50:37.132Z,9.17
2019-04-22T15:53:09.656Z,9.67
2019-04-22T15:55:44.925Z,7.50
2019-04-22T15:58:23.853Z,8.50
2019-04-22T16:01:08.846Z,7.33
2019-04-22T16:03:29.000Z,8.77
2019-04-22T16:05:59.820Z,8.00
2019-04-22T16:08:33.597Z,8.17
2019-04-22T16:11:02.011Z,8.37
2019-04-22T16:13:35.803Z,7.47
2019-04-22T16:16:06.776Z,7.87
2019-04-22T16:18:40.553Z,8.27
2019-04-22T16:21:11.304Z,8.70
2019-04-22T16:24:00.440Z,8.87
2019-04-22T16:26:58.339Z,8.07
2019-04-22T16:29:29.501Z,8.23
2019-04-22T16:32:01.193Z,8.60
2019-04-22T16:34:34.083Z,7.67
2019-04-22T16:37:14.758Z,7.97
2019-04-22T16:39:48.594Z,7.07
2019-04-22T16:42:27.713Z,6.90
2019-04-22T16:44:51.293Z,6.63
2019-04-22T16:47:23.705Z,7.63
2019-04-22T22:01:56.880Z,7.73
2019-04-22T22:04:25.130Z,7.90
2019-04-22T22:06:54.834Z,7.77
2019-04-22T22:09:53.888Z,7.27
2019-04-22T22:12:24.252Z,7.00
2019-04-22T22:15:03.116Z,7.27
2019-04-22T22:20:17.290Z,6.43
2019-04-22T22:22:52.198Z,6.60
2019-04-22T22:25:23.655Z,6.80
2019-04-22T22:27:53.377Z,6.63
2019-04-22T22:30:52.569Z,5.87
2019-04-22T22:33:11.011Z,6.23
2019-04-22T22:35:45.635Z,6.57
2019-04-22T22:38:22.974Z,5.90
2019-04-22T22:40:41.565Z,6.30
2019-04-22T22:43:24.947Z,6.70
2019-04-22T22:46:01.161Z,6.20
2019-04-22T22:48:48.242Z,7.90
2019-04-22T22:51:27.416Z,7.13
2019-04-22T22:53:56.550Z,7.47
2019-04-22T22:57:00.348Z,12.63
2019-04-22T22:59:29.731Z,12.03
2019-04-22T23:01:55.664Z,12.57
2019-04-22T23:04:37.603Z,13.27
2019-04-22T23:07:09.348Z,14.57
2019-04-22T23:09:32.051Z,17.70
2019-04-22T23:12:32.880Z,17.03
2019-04-22T23:14:52.766Z,16.13
2019-04-22T23:17:07.079Z,17.30
2019-04-22T23:19:33.608Z,18.83
2019-04-22T23:22:28.361Z,19.37
2019-04-22T23:25:27.310Z,18.80
2019-04-22T23:28:12.485Z,18.73
2019-04-22T23:31:11.595Z,17.57
2019-04-22T23:34:34.250Z,16.93
2019-04-22T23:37:10.365Z,16.57
2019-04-22T23:40:01.769Z,16.47
2019-04-22T23:42:32.736Z,15.47
2019-04-22T23:45:03.825Z,14.57
2019-04-22T23:47:26.426Z,13.80
2019-04-22T23:50:30.851Z,13.10
2019-04-22T23:53:02.063Z,12.60
2019-04-22T23:55:39.801Z,12.07
2019-04-22T23:58:11.763Z,10.97
